sensor_id;sensor_type;location;lat;lon;timestamp;temperature;humidity
14142;DHT22;7151;52.246;4.820;2022-11-15T00:01:09;11.90;80.30
14142;DHT22;7151;52.246;4.820;2022-11-15T00:03:39;11.90;80.30
14142;DHT22;7151;52.246;4.820;2022-11-15T00:06:04;11.90;80.40
14142;DHT22;7151;52.246;4.820;2022-11-15T00:08:31;11.90;80.50
14142;DHT22;7151;52.246;4.820;2022-11-15T00:10:58;11.90;80.60
14142;DHT22;7151;52.246;4.820;2022-11-15T00:13:24;11.90;80.70
14142;DHT22;7151;52.246;4.820;2022-11-15T00:15:50;11.90;80.80
14142;DHT22;7151;52.246;4.820;2022-11-15T00:18:16;11.90;80.90
14142;DHT22;7151;52.246;4.820;2022-11-15T00:20:43;11.90;81.10
14142;DHT22;7151;52.246;4.820;2022-11-15T00:23:09;11.90;81.10
14142;DHT22;7151;52.246;4.820;2022-11-15T00:25:34;11.90;81.20
14142;DHT22;7151;52.246;4.820;2022-11-15T00:28:00;11.90;81.30
14142;DHT22;7151;52.246;4.820;2022-11-15T00:30:27;11.90;81.40
14142;DHT22;7151;52.246;4.820;2022-11-15T00:32:52;11.90;81.50
14142;DHT22;7151;52.246;4.820;2022-11-15T00:35:19;11.90;81.50
14142;DHT22;7151;52.246;4.820;2022-11-15T00:37:44;11.90;81.70
14142;DHT22;7151;52.246;4.820;2022-11-15T00:40:10;11.90;81.70
14142;DHT22;7151;52.246;4.820;2022-11-15T00:42:38;11.90;81.60
14142;DHT22;7151;52.246;4.820;2022-11-15T00:45:03;11.90;81.70
14142;DHT22;7151;52.246;4.820;2022-11-15T00:47:29;11.90;81.80
14142;DHT22;7151;52.246;4.820;2022-11-15T00:49:55;11.80;81.80
14142;DHT22;7151;52.246;4.820;2022-11-15T00:52:20;11.80;81.80
14142;DHT22;7151;52.246;4.820;2022-11-15T00:54:46;11.90;82.00
14142;DHT22;7151;52.246;4.820;2022-11-15T00:57:11;11.80;82.00
14142;DHT22;7151;52.246;4.820;2022-11-15T00:59:37;11.80;82.00
14142;DHT22;7151;52.246;4.820;2022-11-15T01:02:03;11.80;82.10
14142;DHT22;7151;52.246;4.820;2022-11-15T01:04:28;11.80;82.10
14142;DHT22;7151;52.246;4.820;2022-11-15T01:06:54;11.80;82.20
14142;DHT22;7151;52.246;4.820;2022-11-15T01:09:20;11.80;82.30
14142;DHT22;7151;52.246;4.820;2022-11-15T01:11:45;11.80;82.50
14142;DHT22;7151;52.246;4.820;2022-11-15T01:14:11;11.80;82.50
14142;DHT22;7151;52.246;4.820;2022-11-15T01:16:37;11.80;82.60
14142;DHT22;7151;52.246;4.820;2022-11-15T01:19:02;11.80;82.60
14142;DHT22;7151;52.246;4.820;2022-11-15T01:21:28;11.80;82.80
14142;DHT22;7151;52.246;4.820;2022-11-15T01:23:55;11.80;82.80
14142;DHT22;7151;52.246;4.820;2022-11-15T01:26:21;11.80;82.90
14142;DHT22;7151;52.246;4.820;2022-11-15T01:28:47;11.80;83.10
14142;DHT22;7151;52.246;4.820;2022-11-15T01:31:16;11.80;83.10
14142;DHT22;7151;52.246;4.820;2022-11-15T01:33:42;11.80;83.20
14142;DHT22;7151;52.246;4.820;2022-11-15T01:36:11;11.80;83.80
14142;DHT22;7151;52.246;4.820;2022-11-15T01:38:37;11.80;83.40
14142;DHT22;7151;52.246;4.820;2022-11-15T01:41:04;11.80;83.50
14142;DHT22;7151;52.246;4.820;2022-11-15T01:43:32;11.80;83.50
14142;DHT22;7151;52.246;4.820;2022-11-15T01:46:03;11.80;83.60
14142;DHT22;7151;52.246;4.820;2022-11-15T01:48:33;11.80;83.70
14142;DHT22;7151;52.246;4.820;2022-11-15T01:51:09;11.80;83.80
14142;DHT22;7151;52.246;4.820;2022-11-15T01:53:36;11.80;83.90
14142;DHT22;7151;52.246;4.820;2022-11-15T01:56:05;11.80;83.90
14142;DHT22;7151;52.246;4.820;2022-11-15T01:58:32;11.80;84.00
14142;DHT22;7151;52.246;4.820;2022-11-15T02:00:58;11.80;84.20
14142;DHT22;7151;52.246;4.820;2022-11-15T02:03:40;11.80;84.20
14142;DHT22;7151;52.246;4.820;2022-11-15T02:06:07;11.80;84.40
14142;DHT22;7151;52.246;4.820;2022-11-15T02:08:33;11.80;84.40
14142;DHT22;7151;52.246;4.820;2022-11-15T02:10:59;11.80;84.40
14142;DHT22;7151;52.246;4.820;2022-11-15T02:13:24;11.80;84.50
14142;DHT22;7151;52.246;4.820;2022-11-15T02:18:55;11.80;84.80
14142;DHT22;7151;52.246;4.820;2022-11-15T02:34:55;11.90;85.30
14142;DHT22;7151;52.246;4.820;2022-11-15T02:42:50;11.90;85.80
14142;DHT22;7151;52.246;4.820;2022-11-15T02:45:40;11.90;85.90
14142;DHT22;7151;52.246;4.820;2022-11-15T02:48:07;11.90;85.90
14142;DHT22;7151;52.246;4.820;2022-11-15T02:50:34;12.00;86.20
14142;DHT22;7151;52.246;4.820;2022-11-15T02:53:00;12.00;86.30
14142;DHT22;7151;52.246;4.820;2022-11-15T02:55:31;12.00;86.50
14142;DHT22;7151;52.246;4.820;2022-11-15T03:01:11;12.00;86.70
14142;DHT22;7151;52.246;4.820;2022-11-15T03:04:01;12.10;86.80
14142;DHT22;7151;52.246;4.820;2022-11-15T03:09:11;12.10;87.00
14142;DHT22;7151;52.246;4.820;2022-11-15T03:11:43;12.10;87.10
14142;DHT22;7151;52.246;4.820;2022-11-15T03:14:25;12.10;87.20
14142;DHT22;7151;52.246;4.820;2022-11-15T03:17:19;12.10;87.50
14142;DHT22;7151;52.246;4.820;2022-11-15T03:19:54;12.10;87.60
14142;DHT22;7151;52.246;4.820;2022-11-15T03:22:23;12.20;87.60
14142;DHT22;7151;52.246;4.820;2022-11-15T03:24:56;12.20;87.80
14142;DHT22;7151;52.246;4.820;2022-11-15T03:27:26;12.20;88.00
14142;DHT22;7151;52.246;4.820;2022-11-15T03:30:01;12.20;88.20
14142;DHT22;7151;52.246;4.820;2022-11-15T03:32:29;12.20;88.30
14142;DHT22;7151;52.246;4.820;2022-11-15T03:35:12;12.30;88.50
14142;DHT22;7151;52.246;4.820;2022-11-15T03:38:09;12.30;88.70
14142;DHT22;7151;52.246;4.820;2022-11-15T03:40:39;12.30;88.90
14142;DHT22;7151;52.246;4.820;2022-11-15T03:43:28;12.30;88.80
14142;DHT22;7151;52.246;4.820;2022-11-15T03:46:00;12.40;89.10
14142;DHT22;7151;52.246;4.820;2022-11-15T03:48:37;12.40;89.20
14142;DHT22;7151;52.246;4.820;2022-11-15T03:51:04;12.40;89.30
14142;DHT22;7151;52.246;4.820;2022-11-15T03:53:30;12.40;89.30
14142;DHT22;7151;52.246;4.820;2022-11-15T03:55:57;12.40;89.50
14142;DHT22;7151;52.246;4.820;2022-11-15T03:58:23;12.40;89.60
14142;DHT22;7151;52.246;4.820;2022-11-15T04:00:48;12.50;89.80
14142;DHT22;7151;52.246;4.820;2022-11-15T04:03:14;12.50;90.00
14142;DHT22;7151;52.246;4.820;2022-11-15T04:05:39;12.50;90.00
14142;DHT22;7151;52.246;4.820;2022-11-15T04:08:05;12.50;90.00
14142;DHT22;7151;52.246;4.820;2022-11-15T04:10:30;12.50;90.10
14142;DHT22;7151;52.246;4.820;2022-11-15T04:12:56;12.60;90.10
14142;DHT22;7151;52.246;4.820;2022-11-15T04:15:23;12.60;90.20
14142;DHT22;7151;52.246;4.820;2022-11-15T04:17:53;12.60;90.30
14142;DHT22;7151;52.246;4.820;2022-11-15T04:20:27;12.60;90.30
14142;DHT22;7151;52.246;4.820;2022-11-15T04:23:22;12.70;90.40
14142;DHT22;7151;52.246;4.820;2022-11-15T04:26:12;12.70;90.40
14142;DHT22;7151;52.246;4.820;2022-11-15T04:28:38;12.70;90.40
14142;DHT22;7151;52.246;4.820;2022-11-15T04:31:22;12.70;90.40
14142;DHT22;7151;52.246;4.820;2022-11-15T04:33:48;12.70;90.50
14142;DHT22;7151;52.246;4.820;2022-11-15T04:36:13;12.70;90.50
14142;DHT22;7151;52.246;4.820;2022-11-15T04:38:57;12.80;90.60
14142;DHT22;7151;52.246;4.820;2022-11-15T04:41:23;12.80;90.70
14142;DHT22;7151;52.246;4.820;2022-11-15T04:43:48;12.80;90.70
14142;DHT22;7151;52.246;4.820;2022-11-15T04:46:14;12.80;90.80
14142;DHT22;7151;52.246;4.820;2022-11-15T04:48:39;12.90;90.90
14142;DHT22;7151;52.246;4.820;2022-11-15T04:51:05;12.90;90.90
14142;DHT22;7151;52.246;4.820;2022-11-15T04:53:30;12.90;90.90
14142;DHT22;7151;52.246;4.820;2022-11-15T04:55:56;12.90;90.90
14142;DHT22;7151;52.246;4.820;2022-11-15T04:58:22;12.90;91.00
14142;DHT22;7151;52.246;4.820;2022-11-15T05:00:47;13.00;91.00
14142;DHT22;7151;52.246;4.820;2022-11-15T05:03:13;13.00;91.10
14142;DHT22;7151;52.246;4.820;2022-11-15T05:05:57;13.00;91.10
14142;DHT22;7151;52.246;4.820;2022-11-15T05:08:24;13.00;91.10
14142;DHT22;7151;52.246;4.820;2022-11-15T05:10:49;13.00;91.10
14142;DHT22;7151;52.246;4.820;2022-11-15T05:13:15;13.10;91.10
14142;DHT22;7151;52.246;4.820;2022-11-15T05:15:40;13.10;91.20
14142;DHT22;7151;52.246;4.820;2022-11-15T05:18:06;13.10;91.20
14142;DHT22;7151;52.246;4.820;2022-11-15T05:20:31;13.10;91.30
14142;DHT22;7151;52.246;4.820;2022-11-15T05:22:57;13.10;91.30
14142;DHT22;7151;52.246;4.820;2022-11-15T05:25:23;13.10;91.30
14142;DHT22;7151;52.246;4.820;2022-11-15T05:27:49;13.10;91.40
14142;DHT22;7151;52.246;4.820;2022-11-15T05:30:15;13.20;91.40
14142;DHT22;7151;52.246;4.820;2022-11-15T05:32:41;13.20;91.50
14142;DHT22;7151;52.246;4.820;2022-11-15T05:35:08;13.20;91.50
14142;DHT22;7151;52.246;4.820;2022-11-15T05:37:37;13.20;91.60
14142;DHT22;7151;52.246;4.820;2022-11-15T05:40:02;13.20;91.60
14142;DHT22;7151;52.246;4.820;2022-11-15T05:42:29;13.20;91.60
14142;DHT22;7151;52.246;4.820;2022-11-15T05:44:56;13.30;91.70
14142;DHT22;7151;52.246;4.820;2022-11-15T05:47:25;13.30;91.70
14142;DHT22;7151;52.246;4.820;2022-11-15T05:49:53;13.30;91.70
14142;DHT22;7151;52.246;4.820;2022-11-15T05:52:23;13.30;91.70
14142;DHT22;7151;52.246;4.820;2022-11-15T05:54:51;13.30;91.80
14142;DHT22;7151;52.246;4.820;2022-11-15T05:57:17;13.30;91.80
14142;DHT22;7151;52.246;4.820;2022-11-15T05:59:43;13.40;91.80
14142;DHT22;7151;52.246;4.820;2022-11-15T06:02:10;13.40;91.90
14142;DHT22;7151;52.246;4.820;2022-11-15T06:04:36;13.40;91.90
14142;DHT22;7151;52.246;4.820;2022-11-15T06:07:01;13.40;91.90
14142;DHT22;7151;52.246;4.820;2022-11-15T06:09:27;13.40;91.90
14142;DHT22;7151;52.246;4.820;2022-11-15T06:11:52;13.40;91.90
14142;DHT22;7151;52.246;4.820;2022-11-15T06:14:18;13.40;91.90
14142;DHT22;7151;52.246;4.820;2022-11-15T06:16:43;13.40;91.90
14142;DHT22;7151;52.246;4.820;2022-11-15T06:19:09;13.40;91.90
14142;DHT22;7151;52.246;4.820;2022-11-15T06:21:35;13.40;92.00
14142;DHT22;7151;52.246;4.820;2022-11-15T06:24:00;13.50;92.00
14142;DHT22;7151;52.246;4.820;2022-11-15T06:26:26;13.50;92.00
14142;DHT22;7151;52.246;4.820;2022-11-15T06:28:52;13.50;92.00
14142;DHT22;7151;52.246;4.820;2022-11-15T06:31:18;13.50;92.00
14142;DHT22;7151;52.246;4.820;2022-11-15T06:33:43;13.50;91.90
14142;DHT22;7151;52.246;4.820;2022-11-15T06:36:11;13.50;92.00
14142;DHT22;7151;52.246;4.820;2022-11-15T06:38:41;13.50;92.00
14142;DHT22;7151;52.246;4.820;2022-11-15T06:41:09;13.50;91.90
14142;DHT22;7151;52.246;4.820;2022-11-15T06:43:35;13.50;92.00
14142;DHT22;7151;52.246;4.820;2022-11-15T06:46:02;13.50;91.90
14142;DHT22;7151;52.246;4.820;2022-11-15T06:48:29;13.50;92.00
14142;DHT22;7151;52.246;4.820;2022-11-15T06:50:56;13.50;92.00
14142;DHT22;7151;52.246;4.820;2022-11-15T06:53:22;13.50;92.00
14142;DHT22;7151;52.246;4.820;2022-11-15T06:55:48;13.50;92.00
14142;DHT22;7151;52.246;4.820;2022-11-15T06:58:14;13.50;92.00
14142;DHT22;7151;52.246;4.820;2022-11-15T07:00:40;13.50;92.00
14142;DHT22;7151;52.246;4.820;2022-11-15T07:03:05;13.50;92.00
14142;DHT22;7151;52.246;4.820;2022-11-15T07:05:31;13.50;92.00
14142;DHT22;7151;52.246;4.820;2022-11-15T07:07:58;13.50;92.00
14142;DHT22;7151;52.246;4.820;2022-11-15T07:10:24;13.50;91.90
14142;DHT22;7151;52.246;4.820;2022-11-15T07:12:54;13.50;92.00
14142;DHT22;7151;52.246;4.820;2022-11-15T07:15:24;13.50;92.00
14142;DHT22;7151;52.246;4.820;2022-11-15T07:17:51;13.50;92.00
14142;DHT22;7151;52.246;4.820;2022-11-15T07:20:17;13.50;91.90
14142;DHT22;7151;52.246;4.820;2022-11-15T07:22:42;13.50;91.90
14142;DHT22;7151;52.246;4.820;2022-11-15T07:25:10;13.50;92.00
14142;DHT22;7151;52.246;4.820;2022-11-15T07:27:36;13.50;92.00
14142;DHT22;7151;52.246;4.820;2022-11-15T07:30:02;13.50;92.00
14142;DHT22;7151;52.246;4.820;2022-11-15T07:32:28;13.50;92.30
14142;DHT22;7151;52.246;4.820;2022-11-15T07:34:53;13.50;92.00
14142;DHT22;7151;52.246;4.820;2022-11-15T07:37:19;13.60;92.00
14142;DHT22;7151;52.246;4.820;2022-11-15T07:39:45;13.60;92.00
14142;DHT22;7151;52.246;4.820;2022-11-15T07:42:10;13.60;92.00
14142;DHT22;7151;52.246;4.820;2022-11-15T07:44:55;13.60;92.00
14142;DHT22;7151;52.246;4.820;2022-11-15T07:47:20;13.60;92.00
14142;DHT22;7151;52.246;4.820;2022-11-15T07:49:46;13.60;92.40
14142;DHT22;7151;52.246;4.820;2022-11-15T07:52:13;13.70;92.50
14142;DHT22;7151;52.246;4.820;2022-11-15T07:54:38;13.70;92.30
14142;DHT22;7151;52.246;4.820;2022-11-15T07:57:04;13.80;92.20
14142;DHT22;7151;52.246;4.820;2022-11-15T07:59:31;13.70;92.00
14142;DHT22;7151;52.246;4.820;2022-11-15T08:01:56;13.70;91.90
14142;DHT22;7151;52.246;4.820;2022-11-15T08:04:22;13.80;91.90
14142;DHT22;7151;52.246;4.820;2022-11-15T08:06:47;13.80;91.80
14142;DHT22;7151;52.246;4.820;2022-11-15T08:09:13;13.80;91.80
14142;DHT22;7151;52.246;4.820;2022-11-15T08:11:39;13.70;91.70
14142;DHT22;7151;52.246;4.820;2022-11-15T08:14:04;13.80;91.80
14142;DHT22;7151;52.246;4.820;2022-11-15T08:16:30;13.80;91.80
14142;DHT22;7151;52.246;4.820;2022-11-15T08:18:56;13.70;91.70
14142;DHT22;7151;52.246;4.820;2022-11-15T08:21:22;13.80;91.80
14142;DHT22;7151;52.246;4.820;2022-11-15T08:23:48;13.70;91.80
14142;DHT22;7151;52.246;4.820;2022-11-15T08:26:13;13.70;91.80
14142;DHT22;7151;52.246;4.820;2022-11-15T08:28:39;13.70;91.80
14142;DHT22;7151;52.246;4.820;2022-11-15T08:31:05;13.80;91.80
14142;DHT22;7151;52.246;4.820;2022-11-15T08:33:32;13.70;91.80
14142;DHT22;7151;52.246;4.820;2022-11-15T08:35:59;13.80;91.90
14142;DHT22;7151;52.246;4.820;2022-11-15T08:38:25;13.70;91.90
14142;DHT22;7151;52.246;4.820;2022-11-15T08:40:53;13.70;91.90
14142;DHT22;7151;52.246;4.820;2022-11-15T08:43:23;13.70;92.00
14142;DHT22;7151;52.246;4.820;2022-11-15T08:45:49;13.80;92.00
14142;DHT22;7151;52.246;4.820;2022-11-15T08:48:14;13.80;92.00
14142;DHT22;7151;52.246;4.820;2022-11-15T08:50:40;13.80;92.00
14142;DHT22;7151;52.246;4.820;2022-11-15T08:53:07;13.80;92.10
14142;DHT22;7151;52.246;4.820;2022-11-15T08:55:36;13.90;92.10
14142;DHT22;7151;52.246;4.820;2022-11-15T08:58:02;13.90;92.10
14142;DHT22;7151;52.246;4.820;2022-11-15T09:00:28;13.90;92.10
14142;DHT22;7151;52.246;4.820;2022-11-15T09:02:54;13.90;92.10
14142;DHT22;7151;52.246;4.820;2022-11-15T09:05:20;14.00;92.20
14142;DHT22;7151;52.246;4.820;2022-11-15T09:07:45;13.90;92.10
14142;DHT22;7151;52.246;4.820;2022-11-15T09:10:11;14.00;92.10
14142;DHT22;7151;52.246;4.820;2022-11-15T09:12:36;14.00;92.00
14142;DHT22;7151;52.246;4.820;2022-11-15T09:15:03;14.00;92.00
14142;DHT22;7151;52.246;4.820;2022-11-15T09:17:29;14.00;92.00
14142;DHT22;7151;52.246;4.820;2022-11-15T09:19:54;14.10;92.00
14142;DHT22;7151;52.246;4.820;2022-11-15T09:22:20;14.10;92.00
14142;DHT22;7151;52.246;4.820;2022-11-15T09:24:46;14.10;92.00
14142;DHT22;7151;52.246;4.820;2022-11-15T09:27:12;14.10;92.00
14142;DHT22;7151;52.246;4.820;2022-11-15T09:29:38;14.10;91.90
14142;DHT22;7151;52.246;4.820;2022-11-15T09:32:04;14.10;91.90
14142;DHT22;7151;52.246;4.820;2022-11-15T09:34:29;14.20;91.90
14142;DHT22;7151;52.246;4.820;2022-11-15T09:36:55;14.20;91.90
14142;DHT22;7151;52.246;4.820;2022-11-15T09:39:21;14.20;91.80
14142;DHT22;7151;52.246;4.820;2022-11-15T09:42:05;14.20;91.80
14142;DHT22;7151;52.246;4.820;2022-11-15T09:44:38;14.30;91.80
14142;DHT22;7151;52.246;4.820;2022-11-15T09:47:31;14.30;91.80
14142;DHT22;7151;52.246;4.820;2022-11-15T09:50:08;14.40;91.70
14142;DHT22;7151;52.246;4.820;2022-11-15T09:52:36;14.40;91.60
14142;DHT22;7151;52.246;4.820;2022-11-15T09:55:02;14.40;91.60
14142;DHT22;7151;52.246;4.820;2022-11-15T09:57:37;14.40;91.50
14142;DHT22;7151;52.246;4.820;2022-11-15T10:00:33;14.40;91.40
14142;DHT22;7151;52.246;4.820;2022-11-15T10:03:13;14.50;91.40
14142;DHT22;7151;52.246;4.820;2022-11-15T10:05:45;14.50;91.40
14142;DHT22;7151;52.246;4.820;2022-11-15T10:11:06;14.50;91.30
14142;DHT22;7151;52.246;4.820;2022-11-15T10:13:35;14.50;91.20
14142;DHT22;7151;52.246;4.820;2022-11-15T10:21:20;14.60;91.00
14142;DHT22;7151;52.246;4.820;2022-11-15T10:23:47;14.60;91.00
14142;DHT22;7151;52.246;4.820;2022-11-15T10:26:16;14.60;90.90
14142;DHT22;7151;52.246;4.820;2022-11-15T10:28:41;14.60;90.80
14142;DHT22;7151;52.246;4.820;2022-11-15T10:31:25;14.70;90.90
14142;DHT22;7151;52.246;4.820;2022-11-15T10:33:56;14.70;90.80
14142;DHT22;7151;52.246;4.820;2022-11-15T10:36:24;14.70;90.80
14142;DHT22;7151;52.246;4.820;2022-11-15T10:41:30;14.80;90.60
14142;DHT22;7151;52.246;4.820;2022-11-15T10:47:03;14.80;90.40
14142;DHT22;7151;52.246;4.820;2022-11-15T10:49:31;14.90;90.50
14142;DHT22;7151;52.246;4.820;2022-11-15T10:52:20;14.90;90.40
14142;DHT22;7151;52.246;4.820;2022-11-15T10:55:01;15.00;90.40
14142;DHT22;7151;52.246;4.820;2022-11-15T10:57:37;15.00;90.40
14142;DHT22;7151;52.246;4.820;2022-11-15T11:02:39;15.10;90.20
14142;DHT22;7151;52.246;4.820;2022-11-15T11:05:34;15.10;90.10
14142;DHT22;7151;52.246;4.820;2022-11-15T11:10:28;15.20;90.00
14142;DHT22;7151;52.246;4.820;2022-11-15T11:12:54;15.20;90.00
14142;DHT22;7151;52.246;4.820;2022-11-15T11:15:20;15.20;89.70
14142;DHT22;7151;52.246;4.820;2022-11-15T11:20:59;15.30;89.00
14142;DHT22;7151;52.246;4.820;2022-11-15T11:23:52;15.30;88.80
14142;DHT22;7151;52.246;4.820;2022-11-15T11:26:39;15.30;88.60
14142;DHT22;7151;52.246;4.820;2022-11-15T11:32:40;15.30;88.00
14142;DHT22;7151;52.246;4.820;2022-11-15T11:38:01;15.30;87.70
14142;DHT22;7151;52.246;4.820;2022-11-15T11:43:28;15.30;87.70
14142;DHT22;7151;52.246;4.820;2022-11-15T11:48:43;15.30;87.30
14142;DHT22;7151;52.246;4.820;2022-11-15T11:51:24;15.30;87.20
14142;DHT22;7151;52.246;4.820;2022-11-15T11:54:12;15.30;87.20
14142;DHT22;7151;52.246;4.820;2022-11-15T11:56:41;15.30;86.90
14142;DHT22;7151;52.246;4.820;2022-11-15T11:59:36;15.30;87.00
14142;DHT22;7151;52.246;4.820;2022-11-15T12:02:16;15.40;86.90
14142;DHT22;7151;52.246;4.820;2022-11-15T12:04:47;15.40;86.80
14142;DHT22;7151;52.246;4.820;2022-11-15T12:07:25;15.40;86.70
14142;DHT22;7151;52.246;4.820;2022-11-15T12:10:23;15.40;86.30
14142;DHT22;7151;52.246;4.820;2022-11-15T12:15:57;15.50;86.30
14142;DHT22;7151;52.246;4.820;2022-11-15T12:18:25;15.40;86.00
14142;DHT22;7151;52.246;4.820;2022-11-15T12:20:59;15.50;86.20
14142;DHT22;7151;52.246;4.820;2022-11-15T12:23:29;15.50;85.80
14142;DHT22;7151;52.246;4.820;2022-11-15T12:26:12;15.40;85.60
14142;DHT22;7151;52.246;4.820;2022-11-15T12:29:33;15.50;85.40
14142;DHT22;7151;52.246;4.820;2022-11-15T12:31:45;15.50;85.00
14142;DHT22;7151;52.246;4.820;2022-11-15T12:36:45;15.50;85.00
14142;DHT22;7151;52.246;4.820;2022-11-15T12:39:13;15.50;85.10
14142;DHT22;7151;52.246;4.820;2022-11-15T12:41:41;15.50;85.00
14142;DHT22;7151;52.246;4.820;2022-11-15T13:02:39;15.70;83.90
14142;DHT22;7151;52.246;4.820;2022-11-15T13:12:56;15.70;83.60
14142;DHT22;7151;52.246;4.820;2022-11-15T13:20:50;15.80;83.10
14142;DHT22;7151;52.246;4.820;2022-11-15T13:23:16;15.80;83.20
14142;DHT22;7151;52.246;4.820;2022-11-15T13:28:49;15.80;82.90
14142;DHT22;7151;52.246;4.820;2022-11-15T13:34:00;15.90;82.70
14142;DHT22;7151;52.246;4.820;2022-11-15T13:36:35;15.90;82.50
14142;DHT22;7151;52.246;4.820;2022-11-15T13:39:12;15.90;82.20
14142;DHT22;7151;52.246;4.820;2022-11-15T13:41:47;15.90;82.00
14142;DHT22;7151;52.246;4.820;2022-11-15T13:44:39;15.90;81.80
14142;DHT22;7151;52.246;4.820;2022-11-15T13:47:19;15.90;81.60
14142;DHT22;7151;52.246;4.820;2022-11-15T13:49:45;15.90;81.50
14142;DHT22;7151;52.246;4.820;2022-11-15T13:52:13;15.90;81.40
14142;DHT22;7151;52.246;4.820;2022-11-15T13:54:59;15.90;81.20
14142;DHT22;7151;52.246;4.820;2022-11-15T13:57:41;15.90;81.70
14142;DHT22;7151;52.246;4.820;2022-11-15T14:00:37;15.90;80.80
14142;DHT22;7151;52.246;4.820;2022-11-15T14:05:41;15.90;80.70
14142;DHT22;7151;52.246;4.820;2022-11-15T14:10:45;15.80;80.50
14142;DHT22;7151;52.246;4.820;2022-11-15T14:13:30;15.80;80.50
14142;DHT22;7151;52.246;4.820;2022-11-15T14:16:17;15.80;80.30
14142;DHT22;7151;52.246;4.820;2022-11-15T14:18:49;15.80;80.30
14142;DHT22;7151;52.246;4.820;2022-11-15T14:21:15;15.80;80.30
14142;DHT22;7151;52.246;4.820;2022-11-15T14:23:41;15.80;80.30
14142;DHT22;7151;52.246;4.820;2022-11-15T14:26:33;15.80;80.30
14142;DHT22;7151;52.246;4.820;2022-11-15T14:29:27;15.80;80.00
14142;DHT22;7151;52.246;4.820;2022-11-15T14:32:05;15.80;80.00
14142;DHT22;7151;52.246;4.820;2022-11-15T14:34:32;15.80;80.00
14142;DHT22;7151;52.246;4.820;2022-11-15T14:36:57;15.80;79.90
14142;DHT22;7151;52.246;4.820;2022-11-15T14:39:23;15.80;79.90
14142;DHT22;7151;52.246;4.820;2022-11-15T14:41:50;15.80;79.90
14142;DHT22;7151;52.246;4.820;2022-11-15T14:44:16;15.70;79.70
14142;DHT22;7151;52.246;4.820;2022-11-15T14:46:44;15.70;79.60
14142;DHT22;7151;52.246;4.820;2022-11-15T14:49:09;15.70;79.50
14142;DHT22;7151;52.246;4.820;2022-11-15T14:51:35;15.70;79.40
14142;DHT22;7151;52.246;4.820;2022-11-15T14:54:01;15.70;79.30
14142;DHT22;7151;52.246;4.820;2022-11-15T14:56:26;15.70;79.30
14142;DHT22;7151;52.246;4.820;2022-11-15T14:58:52;15.70;79.20
14142;DHT22;7151;52.246;4.820;2022-11-15T15:01:24;15.80;79.30
14142;DHT22;7151;52.246;4.820;2022-11-15T15:03:50;15.80;79.10
14142;DHT22;7151;52.246;4.820;2022-11-15T15:06:24;15.80;79.20
14142;DHT22;7151;52.246;4.820;2022-11-15T15:08:50;15.80;79.10
14142;DHT22;7151;52.246;4.820;2022-11-15T15:11:27;15.80;79.20
14142;DHT22;7151;52.246;4.820;2022-11-15T15:13:53;15.80;79.10
14142;DHT22;7151;52.246;4.820;2022-11-15T15:16:22;15.80;79.10
14142;DHT22;7151;52.246;4.820;2022-11-15T15:18:49;15.80;79.10
14142;DHT22;7151;52.246;4.820;2022-11-15T15:21:28;15.80;79.10
14142;DHT22;7151;52.246;4.820;2022-11-15T15:23:54;15.80;79.00
14142;DHT22;7151;52.246;4.820;2022-11-15T15:26:20;15.80;79.00
14142;DHT22;7151;52.246;4.820;2022-11-15T15:28:46;15.80;79.00
14142;DHT22;7151;52.246;4.820;2022-11-15T15:31:13;15.80;79.00
14142;DHT22;7151;52.246;4.820;2022-11-15T15:33:39;15.80;79.00
14142;DHT22;7151;52.246;4.820;2022-11-15T15:36:12;15.80;79.00
14142;DHT22;7151;52.246;4.820;2022-11-15T15:38:38;15.70;78.80
14142;DHT22;7151;52.246;4.820;2022-11-15T15:41:11;15.80;79.00
14142;DHT22;7151;52.246;4.820;2022-11-15T15:43:37;15.70;78.80
14142;DHT22;7151;52.246;4.820;2022-11-15T15:46:02;15.70;78.80
14142;DHT22;7151;52.246;4.820;2022-11-15T15:48:28;15.70;78.70
14142;DHT22;7151;52.246;4.820;2022-11-15T15:50:53;15.70;78.70
14142;DHT22;7151;52.246;4.820;2022-11-15T15:53:19;15.70;78.70
14142;DHT22;7151;52.246;4.820;2022-11-15T15:55:45;15.70;78.70
14142;DHT22;7151;52.246;4.820;2022-11-15T15:58:10;15.70;78.70
14142;DHT22;7151;52.246;4.820;2022-11-15T16:00:36;15.70;78.60
14142;DHT22;7151;52.246;4.820;2022-11-15T16:03:03;15.70;78.50
14142;DHT22;7151;52.246;4.820;2022-11-15T16:05:28;15.70;78.50
14142;DHT22;7151;52.246;4.820;2022-11-15T16:07:54;15.70;78.40
14142;DHT22;7151;52.246;4.820;2022-11-15T16:10:28;15.70;78.40
14142;DHT22;7151;52.246;4.820;2022-11-15T16:12:55;15.70;78.30
14142;DHT22;7151;52.246;4.820;2022-11-15T16:15:22;15.70;78.20
14142;DHT22;7151;52.246;4.820;2022-11-15T16:17:51;15.70;78.20
14142;DHT22;7151;52.246;4.820;2022-11-15T16:22:48;15.70;78.10
14142;DHT22;7151;52.246;4.820;2022-11-15T16:25:14;15.70;78.20
14142;DHT22;7151;52.246;4.820;2022-11-15T16:27:40;15.70;78.20
14142;DHT22;7151;52.246;4.820;2022-11-15T16:30:21;15.70;78.20
14142;DHT22;7151;52.246;4.820;2022-11-15T16:32:47;15.70;78.30
14142;DHT22;7151;52.246;4.820;2022-11-15T16:35:14;15.70;78.50
14142;DHT22;7151;52.246;4.820;2022-11-15T16:37:40;15.80;78.70
14142;DHT22;7151;52.246;4.820;2022-11-15T16:40:27;15.70;78.70
14142;DHT22;7151;52.246;4.820;2022-11-15T16:42:55;15.70;78.80
14142;DHT22;7151;52.246;4.820;2022-11-15T16:45:21;15.70;79.10
14142;DHT22;7151;52.246;4.820;2022-11-15T16:47:47;15.70;79.30
14142;DHT22;7151;52.246;4.820;2022-11-15T16:50:20;15.70;79.60
14142;DHT22;7151;52.246;4.820;2022-11-15T16:52:57;15.70;79.80
14142;DHT22;7151;52.246;4.820;2022-11-15T16:55:26;15.70;80.00
14142;DHT22;7151;52.246;4.820;2022-11-15T16:57:52;15.60;80.10
14142;DHT22;7151;52.246;4.820;2022-11-15T17:00:19;15.60;80.30
14142;DHT22;7151;52.246;4.820;2022-11-15T17:02:46;15.60;80.60
14142;DHT22;7151;52.246;4.820;2022-11-15T17:05:12;15.60;80.80
14142;DHT22;7151;52.246;4.820;2022-11-15T17:07:39;15.60;81.00
14142;DHT22;7151;52.246;4.820;2022-11-15T17:10:05;15.60;81.20
14142;DHT22;7151;52.246;4.820;2022-11-15T17:12:35;15.50;81.30
14142;DHT22;7151;52.246;4.820;2022-11-15T17:15:01;15.50;81.50
14142;DHT22;7151;52.246;4.820;2022-11-15T17:17:27;15.50;81.70
14142;DHT22;7151;52.246;4.820;2022-11-15T17:19:53;15.50;81.90
14142;DHT22;7151;52.246;4.820;2022-11-15T17:22:21;15.40;81.90
14142;DHT22;7151;52.246;4.820;2022-11-15T17:24:47;15.50;82.30
14142;DHT22;7151;52.246;4.820;2022-11-15T17:27:13;15.40;82.40
14142;DHT22;7151;52.246;4.820;2022-11-15T17:29:40;15.40;82.70
14142;DHT22;7151;52.246;4.820;2022-11-15T17:32:06;15.40;82.90
14142;DHT22;7151;52.246;4.820;2022-11-15T17:34:32;15.40;83.10
14142;DHT22;7151;52.246;4.820;2022-11-15T17:36:57;15.30;83.30
14142;DHT22;7151;52.246;4.820;2022-11-15T17:39:23;15.30;83.40
14142;DHT22;7151;52.246;4.820;2022-11-15T17:41:49;15.30;83.60
14142;DHT22;7151;52.246;4.820;2022-11-15T17:44:15;15.30;83.80
14142;DHT22;7151;52.246;4.820;2022-11-15T17:46:42;15.30;84.00
14142;DHT22;7151;52.246;4.820;2022-11-15T17:49:08;15.30;84.20
14142;DHT22;7151;52.246;4.820;2022-11-15T17:51:33;15.20;84.30